sensor_id;sensor_type;location;lat;lon;timestamp;pressure;altitude;pressure_sealevel;temperature
66372;BMP180;53168;51.146;17.120;2023-07-13T00:02:14;99807.40;;;21.30
66372;BMP180;53168;51.146;17.120;2023-07-13T00:04:48;99809.00;;;21.30
66372;BMP180;53168;51.146;17.120;2023-07-13T00:07:18;99816.40;;;21.40
66372;BMP180;53168;51.146;17.120;2023-07-13T00:09:50;99818.00;;;21.44
66372;BMP180;53168;51.146;17.120;2023-07-13T00:12:57;99809.60;;;21.40
66372;BMP180;53168;51.146;17.120;2023-07-13T00:15:28;99804.00;;;21.40
66372;BMP180;53168;51.146;17.120;2023-07-13T00:20:46;99795.20;;;21.30
66372;BMP180;53168;51.146;17.120;2023-07-13T00:23:16;99795.80;;;21.20
66372;BMP180;53168;51.146;17.120;2023-07-13T00:25:47;99796.80;;;21.10
66372;BMP180;53168;51.146;17.120;2023-07-13T00:28:20;99805.00;;;21.04
66372;BMP180;53168;51.146;17.120;2023-07-13T00:30:50;99806.20;;;21.00
66372;BMP180;53168;51.146;17.120;2023-07-13T00:33:20;99800.40;;;20.90
66372;BMP180;53168;51.146;17.120;2023-07-13T00:35:51;99801.00;;;20.90
66372;BMP180;53168;51.146;17.120;2023-07-13T00:38:20;99808.80;;;20.90
66372;BMP180;53168;51.146;17.120;2023-07-13T00:40:50;99818.20;;;20.80
66372;BMP180;53168;51.146;17.120;2023-07-13T00:43:23;99819.40;;;20.80
66372;BMP180;53168;51.146;17.120;2023-07-13T00:46:27;99801.60;;;20.70
66372;BMP180;53168;51.146;17.120;2023-07-13T00:49:04;99794.20;;;20.70
66372;BMP180;53168;51.146;17.120;2023-07-13T00:52:23;99793.80;;;20.70
66372;BMP180;53168;51.146;17.120;2023-07-13T01:03:09;99820.00;;;20.80
66372;BMP180;53168;51.146;17.120;2023-07-13T01:05:41;99832.40;;;20.80
66372;BMP180;53168;51.146;17.120;2023-07-13T01:08:19;99841.80;;;20.80
66372;BMP180;53168;51.146;17.120;2023-07-13T01:11:40;99859.20;;;20.80
66372;BMP180;53168;51.146;17.120;2023-07-13T01:14:13;99867.60;;;20.60
66372;BMP180;53168;51.146;17.120;2023-07-13T01:16:47;99850.60;;;20.40
66372;BMP180;53168;51.146;17.120;2023-07-13T01:19:36;99833.80;;;20.20
66372;BMP180;53168;51.146;17.120;2023-07-13T01:22:13;99824.60;;;20.00
66372;BMP180;53168;51.146;17.120;2023-07-13T01:24:46;99818.20;;;19.90
66372;BMP180;53168;51.146;17.120;2023-07-13T01:27:22;99810.80;;;19.80
66372;BMP180;53168;51.146;17.120;2023-07-13T01:29:55;99802.60;;;19.70
66372;BMP180;53168;51.146;17.120;2023-07-13T01:32:31;99808.40;;;19.70
66372;BMP180;53168;51.146;17.120;2023-07-13T01:35:01;99805.60;;;19.70
66372;BMP180;53168;51.146;17.120;2023-07-13T01:37:32;99805.20;;;19.70
66372;BMP180;53168;51.146;17.120;2023-07-13T01:40:03;99804.40;;;19.70
66372;BMP180;53168;51.146;17.120;2023-07-13T01:42:33;99798.00;;;19.70
66372;BMP180;53168;51.146;17.120;2023-07-13T01:45:06;99796.40;;;19.70
66372;BMP180;53168;51.146;17.120;2023-07-13T01:47:36;99799.40;;;19.74
66372;BMP180;53168;51.146;17.120;2023-07-13T01:50:08;99801.20;;;19.72
66372;BMP180;53168;51.146;17.120;2023-07-13T01:52:38;99793.40;;;19.70
66372;BMP180;53168;51.146;17.120;2023-07-13T01:55:09;99791.80;;;19.70
66372;BMP180;53168;51.146;17.120;2023-07-13T01:57:39;99792.00;;;19.70
66372;BMP180;53168;51.146;17.120;2023-07-13T02:02:55;99788.40;;;19.60
66372;BMP180;53168;51.146;17.120;2023-07-13T02:05:26;99789.40;;;19.50
66372;BMP180;53168;51.146;17.120;2023-07-13T02:07:57;99787.60;;;19.50
66372;BMP180;53168;51.146;17.120;2023-07-13T02:10:27;99787.20;;;19.50
66372;BMP180;53168;51.146;17.120;2023-07-13T02:12:57;99790.20;;;19.40
66372;BMP180;53168;51.146;17.120;2023-07-13T02:15:27;99782.60;;;19.40
66372;BMP180;53168;51.146;17.120;2023-07-13T02:17:56;99777.40;;;19.36
66372;BMP180;53168;51.146;17.120;2023-07-13T02:20:27;99768.80;;;19.30
66372;BMP180;53168;51.146;17.120;2023-07-13T02:22:57;99763.60;;;19.30
66372;BMP180;53168;51.146;17.120;2023-07-13T02:25:27;99762.00;;;19.22
66372;BMP180;53168;51.146;17.120;2023-07-13T02:27:56;99760.00;;;19.20
66372;BMP180;53168;51.146;17.120;2023-07-13T02:30:27;99764.80;;;19.10
66372;BMP180;53168;51.146;17.120;2023-07-13T02:32:59;99760.80;;;19.06
66372;BMP180;53168;51.146;17.120;2023-07-13T02:35:29;99765.00;;;19.00
66372;BMP180;53168;51.146;17.120;2023-07-13T02:38:01;99751.80;;;19.00
66372;BMP180;53168;51.146;17.120;2023-07-13T02:40:34;99757.00;;;19.00
66372;BMP180;53168;51.146;17.120;2023-07-13T02:43:05;99754.40;;;18.92
66372;BMP180;53168;51.146;17.120;2023-07-13T02:45:35;99750.60;;;18.90
66372;BMP180;53168;51.146;17.120;2023-07-13T02:48:06;99748.60;;;18.90
66372;BMP180;53168;51.146;17.120;2023-07-13T02:50:37;99748.00;;;18.90
66372;BMP180;53168;51.146;17.120;2023-07-13T02:53:07;99747.40;;;18.90
66372;BMP180;53168;51.146;17.120;2023-07-13T02:55:37;99756.40;;;18.80
66372;BMP180;53168;51.146;17.120;2023-07-13T02:58:07;99754.40;;;18.80
66372;BMP180;53168;51.146;17.120;2023-07-13T03:00:39;99758.80;;;18.80
66372;BMP180;53168;51.146;17.120;2023-07-13T03:03:10;99769.40;;;18.80
66372;BMP180;53168;51.146;17.120;2023-07-13T03:05:45;99769.40;;;18.80
66372;BMP180;53168;51.146;17.120;2023-07-13T03:08:19;99774.20;;;18.80
66372;BMP180;53168;51.146;17.120;2023-07-13T03:10:49;99782.00;;;18.90
66372;BMP180;53168;51.146;17.120;2023-07-13T03:13:28;99782.40;;;19.00
66372;BMP180;53168;51.146;17.120;2023-07-13T03:15:59;99780.60;;;19.10
66372;BMP180;53168;51.146;17.120;2023-07-13T03:18:30;99771.20;;;19.20
66372;BMP180;53168;51.146;17.120;2023-07-13T03:21:03;99779.00;;;19.32
66372;BMP180;53168;51.146;17.120;2023-07-13T03:23:33;99782.80;;;19.50
66372;BMP180;53168;51.146;17.120;2023-07-13T03:26:06;99770.80;;;19.60
66372;BMP180;53168;51.146;17.120;2023-07-13T03:28:37;99776.20;;;19.70
66372;BMP180;53168;51.146;17.120;2023-07-13T03:31:12;99764.00;;;19.70
66372;BMP180;53168;51.146;17.120;2023-07-13T03:33:46;99760.60;;;19.80
66372;BMP180;53168;51.146;17.120;2023-07-13T03:36:24;99763.40;;;19.80
66372;BMP180;53168;51.146;17.120;2023-07-13T03:39:00;99762.00;;;19.90
66372;BMP180;53168;51.146;17.120;2023-07-13T03:41:39;99774.60;;;20.00
66372;BMP180;53168;51.146;17.120;2023-07-13T03:44:09;99780.80;;;20.00
66372;BMP180;53168;51.146;17.120;2023-07-13T03:46:38;99784.20;;;20.00
66372;BMP180;53168;51.146;17.120;2023-07-13T03:49:08;99782.60;;;20.00
66372;BMP180;53168;51.146;17.120;2023-07-13T03:51:39;99780.20;;;20.10
66372;BMP180;53168;51.146;17.120;2023-07-13T03:54:09;99779.60;;;20.10
66372;BMP180;53168;51.146;17.120;2023-07-13T03:56:39;99768.20;;;20.20
66372;BMP180;53168;51.146;17.120;2023-07-13T03:59:10;99766.20;;;20.30
66372;BMP180;53168;51.146;17.120;2023-07-13T04:01:39;99772.20;;;20.36
66372;BMP180;53168;51.146;17.120;2023-07-13T04:04:09;99769.80;;;20.40
66372;BMP180;53168;51.146;17.120;2023-07-13T04:06:39;99769.80;;;20.50
66372;BMP180;53168;51.146;17.120;2023-07-13T04:09:10;99767.60;;;20.60
66372;BMP180;53168;51.146;17.120;2023-07-13T04:11:40;99773.60;;;20.66
66372;BMP180;53168;51.146;17.120;2023-07-13T04:14:10;99775.40;;;20.70
66372;BMP180;53168;51.146;17.120;2023-07-13T04:16:40;99782.80;;;20.70
66372;BMP180;53168;51.146;17.120;2023-07-13T04:19:13;99788.00;;;20.70
66372;BMP180;53168;51.146;17.120;2023-07-13T04:21:44;99799.20;;;20.70
66372;BMP180;53168;51.146;17.120;2023-07-13T04:27:06;99824.00;;;20.70
66372;BMP180;53168;51.146;17.120;2023-07-13T04:29:36;99833.80;;;20.70
66372;BMP180;53168;51.146;17.120;2023-07-13T04:32:22;99862.00;;;20.60
66372;BMP180;53168;51.146;17.120;2023-07-13T04:34:52;99918.20;;;20.54
66372;BMP180;53168;51.146;17.120;2023-07-13T04:37:26;99919.80;;;20.40
66372;BMP180;53168;51.146;17.120;2023-07-13T04:39:56;99922.00;;;20.30
66372;BMP180;53168;51.146;17.120;2023-07-13T04:42:27;99949.80;;;20.10
66372;BMP180;53168;51.146;17.120;2023-07-13T04:44:57;99982.00;;;19.90
66372;BMP180;53168;51.146;17.120;2023-07-13T04:47:26;100029.80;;;19.70
66372;BMP180;53168;51.146;17.120;2023-07-13T04:49:59;100062.60;;;19.14
66372;BMP180;53168;51.146;17.120;2023-07-13T04:52:29;100080.20;;;18.54
66372;BMP180;53168;51.146;17.120;2023-07-13T04:54:59;100090.20;;;18.02
66372;BMP180;53168;51.146;17.120;2023-07-13T04:57:29;100083.00;;;17.48
66372;BMP180;53168;51.146;17.120;2023-07-13T04:59:58;100084.80;;;17.00
66372;BMP180;53168;51.146;17.120;2023-07-13T05:02:30;100087.00;;;16.66
66372;BMP180;53168;51.146;17.120;2023-07-13T05:05:01;100086.60;;;16.50
66372;BMP180;53168;51.146;17.120;2023-07-13T05:07:33;100090.40;;;16.30
66372;BMP180;53168;51.146;17.120;2023-07-13T05:10:03;100090.80;;;16.10
66372;BMP180;53168;51.146;17.120;2023-07-13T05:12:32;100081.20;;;16.08
66372;BMP180;53168;51.146;17.120;2023-07-13T05:15:05;100074.60;;;16.00
66372;BMP180;53168;51.146;17.120;2023-07-13T05:17:39;100078.00;;;15.92
66372;BMP180;53168;51.146;17.120;2023-07-13T05:20:11;100067.20;;;15.94
66372;BMP180;53168;51.146;17.120;2023-07-13T05:22:45;100060.00;;;15.90
66372;BMP180;53168;51.146;17.120;2023-07-13T05:25:18;100053.00;;;15.92
66372;BMP180;53168;51.146;17.120;2023-07-13T05:27:48;100046.40;;;16.00
66372;BMP180;53168;51.146;17.120;2023-07-13T05:30:19;100038.60;;;16.00
66372;BMP180;53168;51.146;17.120;2023-07-13T05:32:48;100043.00;;;16.02
66372;BMP180;53168;51.146;17.120;2023-07-13T05:35:18;100032.60;;;16.00
66372;BMP180;53168;51.146;17.120;2023-07-13T05:37:48;100021.20;;;16.10
66372;BMP180;53168;51.146;17.120;2023-07-13T05:40:17;99997.00;;;16.14
66372;BMP180;53168;51.146;17.120;2023-07-13T05:42:47;99975.80;;;16.20
66372;BMP180;53168;51.146;17.120;2023-07-13T05:45:17;99943.40;;;16.30
66372;BMP180;53168;51.146;17.120;2023-07-13T05:47:47;99917.60;;;16.30
66372;BMP180;53168;51.146;17.120;2023-07-13T05:50:18;99904.40;;;16.30
66372;BMP180;53168;51.146;17.120;2023-07-13T05:52:48;99912.80;;;16.30
66372;BMP180;53168;51.146;17.120;2023-07-13T05:55:20;99934.80;;;16.30
66372;BMP180;53168;51.146;17.120;2023-07-13T06:00:35;99936.40;;;16.50
66372;BMP180;53168;51.146;17.120;2023-07-13T06:03:05;99933.80;;;16.70
66372;BMP180;53168;51.146;17.120;2023-07-13T06:05:39;99930.00;;;16.80
66372;BMP180;53168;51.146;17.120;2023-07-13T06:08:09;99916.40;;;16.90
66372;BMP180;53168;51.146;17.120;2023-07-13T06:10:42;99899.20;;;16.90
66372;BMP180;53168;51.146;17.120;2023-07-13T06:13:20;99886.80;;;16.94
66372;BMP180;53168;51.146;17.120;2023-07-13T06:18:47;99926.20;;;17.20
66372;BMP180;53168;51.146;17.120;2023-07-13T06:21:20;99927.00;;;17.40
66372;BMP180;53168;51.146;17.120;2023-07-13T06:23:56;99919.20;;;17.60
66372;BMP180;53168;51.146;17.120;2023-07-13T06:26:30;99925.00;;;17.70
66372;BMP180;53168;51.146;17.120;2023-07-13T06:29:01;99939.40;;;17.84
66372;BMP180;53168;51.146;17.120;2023-07-13T06:31:31;99942.00;;;18.10
66372;BMP180;53168;51.146;17.120;2023-07-13T06:34:01;99953.60;;;18.30
66372;BMP180;53168;51.146;17.120;2023-07-13T06:36:31;99950.00;;;18.50
66372;BMP180;53168;51.146;17.120;2023-07-13T06:39:01;99947.40;;;18.70
66372;BMP180;53168;51.146;17.120;2023-07-13T06:41:31;99953.40;;;18.70
66372;BMP180;53168;51.146;17.120;2023-07-13T06:44:01;99961.60;;;18.80
66372;BMP180;53168;51.146;17.120;2023-07-13T06:46:31;99963.60;;;18.80
66372;BMP180;53168;51.146;17.120;2023-07-13T06:49:01;99967.40;;;18.78
66372;BMP180;53168;51.146;17.120;2023-07-13T06:51:31;99970.40;;;18.70
66372;BMP180;53168;51.146;17.120;2023-07-13T06:54:00;99995.40;;;18.60
66372;BMP180;53168;51.146;17.120;2023-07-13T06:56:31;100016.60;;;18.40
66372;BMP180;53168;51.146;17.120;2023-07-13T06:59:01;100029.40;;;18.20
66372;BMP180;53168;51.146;17.120;2023-07-13T07:01:30;100042.40;;;18.00
66372;BMP180;53168;51.146;17.120;2023-07-13T07:04:00;100049.60;;;17.90
66372;BMP180;53168;51.146;17.120;2023-07-13T07:06:30;100049.00;;;17.80
66372;BMP180;53168;51.146;17.120;2023-07-13T07:09:00;100056.60;;;17.80
66372;BMP180;53168;51.146;17.120;2023-07-13T07:11:30;100068.60;;;17.70
66372;BMP180;53168;51.146;17.120;2023-07-13T07:14:00;100083.20;;;17.60
66372;BMP180;53168;51.146;17.120;2023-07-13T07:16:30;100093.20;;;17.56
66372;BMP180;53168;51.146;17.120;2023-07-13T07:19:00;100095.20;;;17.50
66372;BMP180;53168;51.146;17.120;2023-07-13T07:21:31;100107.80;;;17.60
66372;BMP180;53168;51.146;17.120;2023-07-13T07:24:01;100110.20;;;17.50
66372;BMP180;53168;51.146;17.120;2023-07-13T07:26:33;100118.60;;;17.50
66372;BMP180;53168;51.146;17.120;2023-07-13T07:29:23;100129.80;;;17.40
66372;BMP180;53168;51.146;17.120;2023-07-13T07:31:59;100125.60;;;17.40
66372;BMP180;53168;51.146;17.120;2023-07-13T07:34:32;100113.20;;;17.40
66372;BMP180;53168;51.146;17.120;2023-07-13T07:37:03;100092.80;;;17.50
66372;BMP180;53168;51.146;17.120;2023-07-13T07:39:36;100082.20;;;17.50
66372;BMP180;53168;51.146;17.120;2023-07-13T07:42:13;100061.40;;;17.58
66372;BMP180;53168;51.146;17.120;2023-07-13T07:44:43;100035.40;;;17.60
66372;BMP180;53168;51.146;17.120;2023-07-13T07:47:17;100013.80;;;17.60
66372;BMP180;53168;51.146;17.120;2023-07-13T07:49:51;99995.00;;;17.70
66372;BMP180;53168;51.146;17.120;2023-07-13T07:52:25;99961.60;;;17.70
66372;BMP180;53168;51.146;17.120;2023-07-13T07:54:57;99916.00;;;17.80
66372;BMP180;53168;51.146;17.120;2023-07-13T07:57:51;99913.20;;;17.90
66372;BMP180;53168;51.146;17.120;2023-07-13T08:00:41;99920.40;;;18.00
66372;BMP180;53168;51.146;17.120;2023-07-13T08:03:14;99918.40;;;18.10
66372;BMP180;53168;51.146;17.120;2023-07-13T08:05:46;99921.80;;;18.30
66372;BMP180;53168;51.146;17.120;2023-07-13T08:09:34;99921.60;;;18.60
66372;BMP180;53168;51.146;17.120;2023-07-13T08:12:09;99953.40;;;19.06
66372;BMP180;53168;51.146;17.120;2023-07-13T08:14:56;99973.20;;;19.40
66372;BMP180;53168;51.146;17.120;2023-07-13T08:17:28;99985.00;;;19.70
66372;BMP180;53168;51.146;17.120;2023-07-13T08:20:10;99999.80;;;20.00
66372;BMP180;53168;51.146;17.120;2023-07-13T08:22:43;100005.00;;;20.30
66372;BMP180;53168;51.146;17.120;2023-07-13T08:25:28;100014.00;;;20.50
66372;BMP180;53168;51.146;17.120;2023-07-13T08:28:04;100014.40;;;20.60
66372;BMP180;53168;51.146;17.120;2023-07-13T08:30:46;100017.60;;;20.70
66372;BMP180;53168;51.146;17.120;2023-07-13T08:33:21;100025.60;;;20.60
66372;BMP180;53168;51.146;17.120;2023-07-13T08:35:59;100035.20;;;20.60
66372;BMP180;53168;51.146;17.120;2023-07-13T08:38:34;100038.60;;;20.60
66372;BMP180;53168;51.146;17.120;2023-07-13T08:41:21;100040.20;;;20.60
66372;BMP180;53168;51.146;17.120;2023-07-13T08:43:59;100047.60;;;20.60
66372;BMP180;53168;51.146;17.120;2023-07-13T08:46:40;100051.00;;;20.70
66372;BMP180;53168;51.146;17.120;2023-07-13T08:49:17;100056.80;;;20.80
66372;BMP180;53168;51.146;17.120;2023-07-13T08:52:00;100065.60;;;20.90
66372;BMP180;53168;51.146;17.120;2023-07-13T08:54:38;100072.40;;;21.06
66372;BMP180;53168;51.146;17.120;2023-07-13T08:57:17;100075.20;;;21.20
66372;BMP180;53168;51.146;17.120;2023-07-13T08:59:49;100078.60;;;21.20
66372;BMP180;53168;51.146;17.120;2023-07-13T09:02:37;100077.20;;;21.30
66372;BMP180;53168;51.146;17.120;2023-07-13T09:05:17;100078.60;;;21.40
66372;BMP180;53168;51.146;17.120;2023-07-13T09:08:12;100082.00;;;21.50
66372;BMP180;53168;51.146;17.120;2023-07-13T09:10:53;100082.80;;;21.80
66372;BMP180;53168;51.146;17.120;2023-07-13T09:13:39;100079.40;;;22.06
66372;BMP180;53168;51.146;17.120;2023-07-13T09:16:15;100083.20;;;22.30
66372;BMP180;53168;51.146;17.120;2023-07-13T09:18:51;100083.00;;;22.52
66372;BMP180;53168;51.146;17.120;2023-07-13T09:21:30;100088.80;;;22.82
66372;BMP180;53168;51.146;17.120;2023-07-13T09:24:29;100085.00;;;23.10
66372;BMP180;53168;51.146;17.120;2023-07-13T09:27:14;100078.40;;;23.24
66372;BMP180;53168;51.146;17.120;2023-07-13T09:29:54;100074.80;;;23.48
66372;BMP180;53168;51.146;17.120;2023-07-13T09:32:29;100072.80;;;23.60
66372;BMP180;53168;51.146;17.120;2023-07-13T09:34:59;100075.20;;;23.60
66372;BMP180;53168;51.146;17.120;2023-07-13T09:37:33;100080.60;;;23.60
66372;BMP180;53168;51.146;17.120;2023-07-13T09:40:08;100083.00;;;23.60
66372;BMP180;53168;51.146;17.120;2023-07-13T09:42:43;100081.60;;;23.50
66372;BMP180;53168;51.146;17.120;2023-07-13T09:45:29;100075.40;;;23.50
66372;BMP180;53168;51.146;17.120;2023-07-13T09:48:10;100076.60;;;23.50
66372;BMP180;53168;51.146;17.120;2023-07-13T09:50:41;100069.80;;;23.60
66372;BMP180;53168;51.146;17.120;2023-07-13T09:53:17;100063.20;;;23.60
66372;BMP180;53168;51.146;17.120;2023-07-13T09:55:49;100064.80;;;23.70
66372;BMP180;53168;51.146;17.120;2023-07-13T09:58:30;100068.20;;;23.80
66372;BMP180;53168;51.146;17.120;2023-07-13T10:01:04;100077.00;;;23.90
66372;BMP180;53168;51.146;17.120;2023-07-13T10:03:40;100077.60;;;23.90
66372;BMP180;53168;51.146;17.120;2023-07-13T10:06:22;100071.80;;;23.90
66372;BMP180;53168;51.146;17.120;2023-07-13T10:09:01;100068.80;;;23.96
66372;BMP180;53168;51.146;17.120;2023-07-13T10:11:31;100071.80;;;24.10
66372;BMP180;53168;51.146;17.120;2023-07-13T10:14:16;100072.20;;;24.12
66372;BMP180;53168;51.146;17.120;2023-07-13T10:17:06;100066.60;;;24.30
66372;BMP180;53168;51.146;17.120;2023-07-13T10:19:49;100069.60;;;24.40
66372;BMP180;53168;51.146;17.120;2023-07-13T10:22:31;100064.20;;;24.54
66372;BMP180;53168;51.146;17.120;2023-07-13T10:25:14;100066.00;;;24.94
66372;BMP180;53168;51.146;17.120;2023-07-13T10:27:51;100084.40;;;25.20
66372;BMP180;53168;51.146;17.120;2023-07-13T10:30:28;100086.00;;;25.20
66372;BMP180;53168;51.146;17.120;2023-07-13T10:33:02;100080.80;;;25.42
66372;BMP180;53168;51.146;17.120;2023-07-13T10:35:34;100080.60;;;25.84
66372;BMP180;53168;51.146;17.120;2023-07-13T10:38:17;100080.60;;;26.40
66372;BMP180;53168;51.146;17.120;2023-07-13T10:40:58;100084.40;;;26.60
66372;BMP180;53168;51.146;17.120;2023-07-13T10:43:35;100080.20;;;26.50
66372;BMP180;53168;51.146;17.120;2023-07-13T10:46:12;100072.80;;;26.70
66372;BMP180;53168;51.146;17.120;2023-07-13T10:48:49;100090.80;;;26.90
66372;BMP180;53168;51.146;17.120;2023-07-13T10:51:22;100096.20;;;26.90
66372;BMP180;53168;51.146;17.120;2023-07-13T10:54:16;100089.40;;;26.70
66372;BMP180;53168;51.146;17.120;2023-07-13T10:56:53;100079.60;;;26.90
66372;BMP180;53168;51.146;17.120;2023-07-13T10:59:39;100066.80;;;27.10
66372;BMP180;53168;51.146;17.120;2023-07-13T11:02:37;100074.40;;;27.24
66372;BMP180;53168;51.146;17.120;2023-07-13T11:05:30;100082.20;;;27.56
66372;BMP180;53168;51.146;17.120;2023-07-13T11:08:18;100081.20;;;27.90
66372;BMP180;53168;51.146;17.120;2023-07-13T11:10:57;100070.00;;;28.40
66372;BMP180;53168;51.146;17.120;2023-07-13T11:13:58;100069.60;;;28.80
66372;BMP180;53168;51.146;17.120;2023-07-13T11:16:46;100073.40;;;28.42
66372;BMP180;53168;51.146;17.120;2023-07-13T11:19:39;100071.60;;;28.14
66372;BMP180;53168;51.146;17.120;2023-07-13T11:22:25;100074.60;;;27.98
66372;BMP180;53168;51.146;17.120;2023-07-13T11:25:25;100077.20;;;28.10
66372;BMP180;53168;51.146;17.120;2023-07-13T11:28:16;100082.60;;;28.06
66372;BMP180;53168;51.146;17.120;2023-07-13T11:31:01;100085.80;;;28.00
66372;BMP180;53168;51.146;17.120;2023-07-13T11:33:59;100090.20;;;27.70
66372;BMP180;53168;51.146;17.120;2023-07-13T11:36:39;100085.20;;;27.40
66372;BMP180;53168;51.146;17.120;2023-07-13T11:39:30;100080.00;;;27.70
66372;BMP180;53168;51.146;17.120;2023-07-13T11:42:10;100088.40;;;27.40
66372;BMP180;53168;51.146;17.120;2023-07-13T11:44:47;100089.00;;;27.40
66372;BMP180;53168;51.146;17.120;2023-07-13T11:47:43;100087.00;;;27.40
66372;BMP180;53168;51.146;17.120;2023-07-13T11:50:26;100080.40;;;27.54
66372;BMP180;53168;51.146;17.120;2023-07-13T11:53:34;100087.00;;;27.80
66372;BMP180;53168;51.146;17.120;2023-07-13T11:56:24;100064.00;;;28.06
66372;BMP180;53168;51.146;17.120;2023-07-13T11:59:07;100089.80;;;28.20
66372;BMP180;53168;51.146;17.120;2023-07-13T12:01:49;100096.80;;;27.80
66372;BMP180;53168;51.146;17.120;2023-07-13T12:04:29;100095.20;;;27.60
66372;BMP180;53168;51.146;17.120;2023-07-13T12:07:15;100105.40;;;27.50
66372;BMP180;53168;51.146;17.120;2023-07-13T12:10:01;100099.80;;;27.38
66372;BMP180;53168;51.146;17.120;2023-07-13T12:12:31;100100.20;;;27.20
66372;BMP180;53168;51.146;17.120;2023-07-13T12:15:07;100105.00;;;27.40
66372;BMP180;53168;51.146;17.120;2023-07-13T12:18:01;100098.40;;;27.64
66372;BMP180;53168;51.146;17.120;2023-07-13T12:20:59;100098.20;;;27.90
66372;BMP180;53168;51.146;17.120;2023-07-13T12:23:38;100101.40;;;27.80
66372;BMP180;53168;51.146;17.120;2023-07-13T12:27:29;100096.80;;;27.70
66372;BMP180;53168;51.146;17.120;2023-07-13T12:30:32;100097.60;;;27.90
66372;BMP180;53168;51.146;17.120;2023-07-13T12:36:46;100067.20;;;28.92
66372;BMP180;53168;51.146;17.120;2023-07-13T12:39:54;100084.20;;;30.30
66372;BMP180;53168;51.146;17.120;2023-07-13T12:42:41;100064.00;;;30.64
66372;BMP180;53168;51.146;17.120;2023-07-13T12:45:39;100062.60;;;31.76
66372;BMP180;53168;51.146;17.120;2023-07-13T12:48:26;100086.60;;;31.66
66372;BMP180;53168;51.146;17.120;2023-07-13T12:51:17;100091.60;;;30.86
66372;BMP180;53168;51.146;17.120;2023-07-13T12:54:13;100095.80;;;29.92
66372;BMP180;53168;51.146;17.120;2023-07-13T12:57:08;100089.80;;;29.30
66372;BMP180;53168;51.146;17.120;2023-07-13T12:59:54;100083.40;;;29.00
66372;BMP180;53168;51.146;17.120;2023-07-13T13:02:32;100082.20;;;29.90
66372;BMP180;53168;51.146;17.120;2023-07-13T13:05:16;100078.60;;;31.06
66372;BMP180;53168;51.146;17.120;2023-07-13T13:07:50;100081.00;;;31.60
66372;BMP180;53168;51.146;17.120;2023-07-13T13:10:32;100069.20;;;32.36
66372;BMP180;53168;51.146;17.120;2023-07-13T13:13:03;100067.40;;;33.20
66372;BMP180;53168;51.146;17.120;2023-07-13T13:15:33;100064.20;;;34.14
66372;BMP180;53168;51.146;17.120;2023-07-13T13:18:23;100076.40;;;34.30
66372;BMP180;53168;51.146;17.120;2023-07-13T13:21:05;100076.20;;;33.76
66372;BMP180;53168;51.146;17.120;2023-07-13T13:23:54;100074.60;;;33.24
66372;BMP180;53168;51.146;17.120;2023-07-13T13:26:34;100070.20;;;32.90
66372;BMP180;53168;51.146;17.120;2023-07-13T13:29:15;100065.60;;;33.82
66372;BMP180;53168;51.146;17.120;2023-07-13T13:31:59;100069.00;;;34.56
66372;BMP180;53168;51.146;17.120;2023-07-13T13:34:41;100058.60;;;34.92
66372;BMP180;53168;51.146;17.120;2023-07-13T13:37:34;100081.60;;;35.34
66372;BMP180;53168;51.146;17.120;2023-07-13T13:40:34;100079.00;;;35.28
66372;BMP180;53168;51.146;17.120;2023-07-13T13:53:56;100060.20;;;36.94
66372;BMP180;53168;51.146;17.120;2023-07-13T13:56:45;100056.20;;;37.80
66372;BMP180;53168;51.146;17.120;2023-07-13T13:59:50;100055.20;;;37.80
66372;BMP180;53168;51.146;17.120;2023-07-13T14:02:33;100054.00;;;37.80
66372;BMP180;53168;51.146;17.120;2023-07-13T14:05:22;100050.80;;;37.80
66372;BMP180;53168;51.146;17.120;2023-07-13T14:12:11;100036.60;;;38.30
66372;BMP180;53168;51.146;17.120;2023-07-13T14:15:04;100029.20;;;38.52
66372;BMP180;53168;51.146;17.120;2023-07-13T14:17:46;100027.60;;;38.80
66372;BMP180;53168;51.146;17.120;2023-07-13T14:25:10;100046.60;;;39.00
66372;BMP180;53168;51.146;17.120;2023-07-13T14:32:25;100041.20;;;39.70
66372;BMP180;53168;51.146;17.120;2023-07-13T14:36:25;100044.80;;;39.74
66372;BMP180;53168;51.146;17.120;2023-07-13T14:40:52;100057.60;;;40.24
66372;BMP180;53168;51.146;17.120;2023-07-13T14:43:26;100025.20;;;39.30
66372;BMP180;53168;51.146;17.120;2023-07-13T14:46:02;100057.00;;;38.22
66372;BMP180;53168;51.146;17.120;2023-07-13T14:48:39;100071.60;;;36.72
66372;BMP180;53168;51.146;17.120;2023-07-13T14:51:13;100071.80;;;35.44
66372;BMP180;53168;51.146;17.120;2023-07-13T14:53:47;100074.40;;;34.46
66372;BMP180;53168;51.146;17.120;2023-07-13T14:56:25;100061.80;;;33.60
66372;BMP180;53168;51.146;17.120;2023-07-13T14:58:59;100065.40;;;32.98
66372;BMP180;53168;51.146;17.120;2023-07-13T15:01:33;100071.20;;;32.38
66372;BMP180;53168;51.146;17.120;2023-07-13T15:04:11;100065.20;;;31.56
66372;BMP180;53168;51.146;17.120;2023-07-13T15:07:01;100064.20;;;30.80
66372;BMP180;53168;51.146;17.120;2023-07-13T15:09:41;100073.80;;;30.28
66372;BMP180;53168;51.146;17.120;2023-07-13T15:12:21;100074.40;;;29.80
66372;BMP180;53168;51.146;17.120;2023-07-13T15:15:09;100073.40;;;29.40
66372;BMP180;53168;51.146;17.120;2023-07-13T15:18:18;100060.60;;;29.20
66372;BMP180;53168;51.146;17.120;2023-07-13T15:21:22;100017.40;;;29.64
66372;BMP180;53168;51.146;17.120;2023-07-13T15:24:04;100015.00;;;31.76
66372;BMP180;53168;51.146;17.120;2023-07-13T15:35:33;100018.40;;;36.00
66372;BMP180;53168;51.146;17.120;2023-07-13T15:38:38;100010.80;;;36.20
66372;BMP180;53168;51.146;17.120;2023-07-13T15:45:33;100006.00;;;36.88
66372;BMP180;53168;51.146;17.120;2023-07-13T15:49:16;100007.80;;;37.00
66372;BMP180;53168;51.146;17.120;2023-07-13T15:52:01;100011.00;;;37.00
66372;BMP180;53168;51.146;17.120;2023-07-13T15:55:41;100015.60;;;37.38
66372;BMP180;53168;51.146;17.120;2023-07-13T16:01:59;100015.20;;;37.50